Аэропорт: Казань. Казань

ICAO: UWKD

METAR:
2018/07/22 20:00
UWKD 222000Z 07005MPS CAVOK 16/09 Q1016 R11/CLRD70 NOSIG RMK QFE752/1003
METAR:
2018/07/22 18:37
TAF UWKD 221645Z 2218/2318 10003MPS 9999 NSC TX26/2312Z TN15/2301Z 
      TEMPO 2306/2315 11010MPS BKN040